sensor_id;sensor_type;location;lat;lon;timestamp;pressure;altitude;pressure_sealevel;temperature;humidity
10460;BME280;54412;51.206;6.888;2023-08-01T00:00:51;99225.84;;;18.41;100.00
10460;BME280;54412;51.206;6.888;2023-08-01T00:03:17;99226.34;;;18.44;100.00
10460;BME280;54412;51.206;6.888;2023-08-01T00:05:43;99219.44;;;18.34;100.00
10460;BME280;54412;51.206;6.888;2023-08-01T00:08:11;99220.63;;;18.39;100.00
10460;BME280;54412;51.206;6.888;2023-08-01T00:10:41;99226.19;;;18.46;100.00
10460;BME280;54412;51.206;6.888;2023-08-01T00:13:07;99203.34;;;18.51;100.00
10460;BME280;54412;51.206;6.888;2023-08-01T00:15:34;99190.59;;;18.37;100.00
10460;BME280;54412;51.206;6.888;2023-08-01T00:17:59;99198.34;;;18.23;100.00
10460;BME280;54412;51.206;6.888;2023-08-01T00:20:25;99203.41;;;18.34;100.00
10460;BME280;54412;51.206;6.888;2023-08-01T00:22:51;99190.66;;;18.45;100.00
10460;BME280;54412;51.206;6.888;2023-08-01T00:25:17;99164.56;;;18.39;100.00
10460;BME280;54412;51.206;6.888;2023-08-01T00:27:43;99156.09;;;18.44;100.00
10460;BME280;54412;51.206;6.888;2023-08-01T00:30:09;99133.25;;;18.41;100.00
10460;BME280;54412;51.206;6.888;2023-08-01T00:32:36;99139.94;;;18.45;100.00
10460;BME280;54412;51.206;6.888;2023-08-01T00:35:02;99165.66;;;18.54;100.00
10460;BME280;54412;51.206;6.888;2023-08-01T00:37:28;99162.91;;;18.38;100.00
10460;BME280;54412;51.206;6.888;2023-08-01T00:39:54;99167.78;;;18.43;100.00
10460;BME280;54412;51.206;6.888;2023-08-01T00:42:20;99163.81;;;18.47;100.00
10460;BME280;54412;51.206;6.888;2023-08-01T00:44:45;99167.56;;;18.36;100.00
10460;BME280;54412;51.206;6.888;2023-08-01T00:47:13;99159.34;;;18.30;100.00
10460;BME280;54412;51.206;6.888;2023-08-01T00:49:39;99131.41;;;18.42;100.00
10460;BME280;54412;51.206;6.888;2023-08-01T00:52:06;99096.72;;;18.42;100.00
10460;BME280;54412;51.206;6.888;2023-08-01T00:54:32;99101.34;;;18.40;100.00
10460;BME280;54412;51.206;6.888;2023-08-01T00:57:05;99125.50;;;18.30;100.00
10460;BME280;54412;51.206;6.888;2023-08-01T00:59:32;99139.53;;;18.32;100.00
10460;BME280;54412;51.206;6.888;2023-08-01T01:01:59;99163.88;;;18.29;100.00
10460;BME280;54412;51.206;6.888;2023-08-01T01:04:26;99148.84;;;18.28;100.00
10460;BME280;54412;51.206;6.888;2023-08-01T01:07:06;99149.34;;;18.32;100.00
10460;BME280;54412;51.206;6.888;2023-08-01T01:09:32;99141.50;;;18.30;100.00
10460;BME280;54412;51.206;6.888;2023-08-01T01:12:01;99130.56;;;18.41;100.00
10460;BME280;54412;51.206;6.888;2023-08-01T01:14:28;99153.84;;;18.31;100.00
10460;BME280;54412;51.206;6.888;2023-08-01T01:16:54;99159.72;;;18.35;100.00
10460;BME280;54412;51.206;6.888;2023-08-01T01:19:20;99149.25;;;18.41;100.00
10460;BME280;54412;51.206;6.888;2023-08-01T01:21:48;99141.25;;;18.49;100.00
10460;BME280;54412;51.206;6.888;2023-08-01T01:24:15;99140.06;;;18.44;100.00
10460;BME280;54412;51.206;6.888;2023-08-01T01:26:42;99135.63;;;18.52;100.00
10460;BME280;54412;51.206;6.888;2023-08-01T01:29:09;99126.91;;;18.42;100.00
10460;BME280;54412;51.206;6.888;2023-08-01T01:31:36;99127.38;;;18.38;100.00
10460;BME280;54412;51.206;6.888;2023-08-01T01:34:03;99122.03;;;18.38;100.00
10460;BME280;54412;51.206;6.888;2023-08-01T01:36:30;99116.13;;;18.26;100.00
10460;BME280;54412;51.206;6.888;2023-08-01T01:38:56;99105.28;;;18.20;100.00
10460;BME280;54412;51.206;6.888;2023-08-01T01:41:21;99104.44;;;18.19;100.00
10460;BME280;54412;51.206;6.888;2023-08-01T01:43:48;99112.78;;;18.24;100.00
10460;BME280;54412;51.206;6.888;2023-08-01T01:46:14;99108.00;;;18.36;100.00
10460;BME280;54412;51.206;6.888;2023-08-01T01:48:39;99107.31;;;18.34;100.00
10460;BME280;54412;51.206;6.888;2023-08-01T01:51:05;99097.53;;;18.42;100.00
10460;BME280;54412;51.206;6.888;2023-08-01T01:53:31;99100.47;;;18.31;100.00
10460;BME280;54412;51.206;6.888;2023-08-01T01:55:56;99104.28;;;18.21;100.00
10460;BME280;54412;51.206;6.888;2023-08-01T01:58:22;99109.13;;;18.25;100.00
10460;BME280;54412;51.206;6.888;2023-08-01T02:00:49;99108.28;;;18.25;100.00
10460;BME280;54412;51.206;6.888;2023-08-01T02:03:15;99097.09;;;18.21;100.00
10460;BME280;54412;51.206;6.888;2023-08-01T02:05:40;99102.63;;;18.28;100.00
10460;BME280;54412;51.206;6.888;2023-08-01T02:08:07;99110.50;;;18.37;100.00
10460;BME280;54412;51.206;6.888;2023-08-01T02:10:32;99105.00;;;18.39;100.00
10460;BME280;54412;51.206;6.888;2023-08-01T02:12:58;99101.31;;;18.32;100.00
10460;BME280;54412;51.206;6.888;2023-08-01T02:15:24;99102.84;;;18.34;100.00
10460;BME280;54412;51.206;6.888;2023-08-01T02:17:50;99083.66;;;18.39;100.00
10460;BME280;54412;51.206;6.888;2023-08-01T02:20:16;99080.25;;;18.21;100.00
10460;BME280;54412;51.206;6.888;2023-08-01T02:22:42;99080.97;;;18.31;100.00
10460;BME280;54412;51.206;6.888;2023-08-01T02:25:07;99094.28;;;18.23;100.00
10460;BME280;54412;51.206;6.888;2023-08-01T02:27:33;99103.63;;;18.27;100.00
10460;BME280;54412;51.206;6.888;2023-08-01T02:29:59;99104.78;;;18.24;100.00
10460;BME280;54412;51.206;6.888;2023-08-01T02:32:25;99100.13;;;18.26;100.00
10460;BME280;54412;51.206;6.888;2023-08-01T02:34:50;99100.47;;;18.23;100.00
10460;BME280;54412;51.206;6.888;2023-08-01T02:37:16;99103.09;;;18.15;100.00
10460;BME280;54412;51.206;6.888;2023-08-01T02:39:42;99100.59;;;18.14;100.00
10460;BME280;54412;51.206;6.888;2023-08-01T02:42:07;99104.47;;;18.27;100.00
10460;BME280;54412;51.206;6.888;2023-08-01T02:44:33;99106.47;;;18.25;100.00
10460;BME280;54412;51.206;6.888;2023-08-01T02:46:59;99101.78;;;18.19;100.00
10460;BME280;54412;51.206;6.888;2023-08-01T02:49:25;99116.22;;;18.01;100.00
10460;BME280;54412;51.206;6.888;2023-08-01T02:51:51;99116.06;;;18.02;100.00
10460;BME280;54412;51.206;6.888;2023-08-01T02:54:16;99120.88;;;17.99;100.00
10460;BME280;54412;51.206;6.888;2023-08-01T02:56:42;99115.22;;;18.02;100.00
10460;BME280;54412;51.206;6.888;2023-08-01T02:59:08;99113.38;;;18.02;100.00
10460;BME280;54412;51.206;6.888;2023-08-01T03:01:38;99115.44;;;18.16;100.00
10460;BME280;54412;51.206;6.888;2023-08-01T03:04:05;99119.25;;;18.14;100.00
10460;BME280;54412;51.206;6.888;2023-08-01T03:06:32;99122.34;;;17.93;100.00
10460;BME280;54412;51.206;6.888;2023-08-01T03:08:58;99122.22;;;18.03;100.00
10460;BME280;54412;51.206;6.888;2023-08-01T03:11:25;99130.78;;;18.14;100.00
10460;BME280;54412;51.206;6.888;2023-08-01T03:13:51;99134.81;;;18.18;100.00
10460;BME280;54412;51.206;6.888;2023-08-01T03:16:17;99136.78;;;18.16;100.00
10460;BME280;54412;51.206;6.888;2023-08-01T03:18:43;99139.78;;;18.13;100.00
10460;BME280;54412;51.206;6.888;2023-08-01T03:21:09;99138.25;;;18.11;100.00
10460;BME280;54412;51.206;6.888;2023-08-01T03:23:35;99133.66;;;17.87;100.00
10460;BME280;54412;51.206;6.888;2023-08-01T03:26:01;99135.44;;;18.12;100.00
10460;BME280;54412;51.206;6.888;2023-08-01T03:28:27;99152.00;;;17.90;100.00
10460;BME280;54412;51.206;6.888;2023-08-01T03:30:53;99152.47;;;17.86;100.00
10460;BME280;54412;51.206;6.888;2023-08-01T03:33:22;99154.72;;;17.98;100.00
10460;BME280;54412;51.206;6.888;2023-08-01T03:35:48;99161.78;;;17.82;100.00
10460;BME280;54412;51.206;6.888;2023-08-01T03:38:14;99159.00;;;17.91;100.00
10460;BME280;54412;51.206;6.888;2023-08-01T03:40:40;99168.38;;;17.69;100.00
10460;BME280;54412;51.206;6.888;2023-08-01T03:43:05;99180.69;;;17.70;100.00
10460;BME280;54412;51.206;6.888;2023-08-01T03:45:33;99178.19;;;17.69;100.00
10460;BME280;54412;51.206;6.888;2023-08-01T03:47:58;99183.00;;;17.91;100.00
10460;BME280;54412;51.206;6.888;2023-08-01T03:50:25;99186.56;;;17.74;100.00
10460;BME280;54412;51.206;6.888;2023-08-01T03:52:51;99183.00;;;17.65;100.00
10460;BME280;54412;51.206;6.888;2023-08-01T03:55:17;99192.63;;;17.58;100.00
10460;BME280;54412;51.206;6.888;2023-08-01T03:57:43;99191.50;;;17.61;100.00
10460;BME280;54412;51.206;6.888;2023-08-01T04:00:09;99189.19;;;17.66;100.00
10460;BME280;54412;51.206;6.888;2023-08-01T04:02:44;99194.19;;;17.69;100.00
10460;BME280;54412;51.206;6.888;2023-08-01T04:05:10;99191.69;;;17.67;100.00
10460;BME280;54412;51.206;6.888;2023-08-01T04:07:37;99198.69;;;17.68;100.00
10460;BME280;54412;51.206;6.888;2023-08-01T04:10:04;99195.28;;;17.58;100.00
10460;BME280;54412;51.206;6.888;2023-08-01T04:12:33;99196.38;;;17.48;100.00
10460;BME280;54412;51.206;6.888;2023-08-01T04:14:59;99196.28;;;17.57;100.00
10460;BME280;54412;51.206;6.888;2023-08-01T04:17:25;99202.13;;;17.43;100.00
10460;BME280;54412;51.206;6.888;2023-08-01T04:19:50;99197.03;;;17.32;100.00
10460;BME280;54412;51.206;6.888;2023-08-01T04:22:16;99197.63;;;17.44;100.00
10460;BME280;54412;51.206;6.888;2023-08-01T04:24:42;99209.31;;;17.43;100.00
10460;BME280;54412;51.206;6.888;2023-08-01T04:27:08;99201.38;;;17.51;100.00
10460;BME280;54412;51.206;6.888;2023-08-01T04:29:34;99193.75;;;17.38;100.00
10460;BME280;54412;51.206;6.888;2023-08-01T04:32:00;99193.56;;;17.49;100.00
10460;BME280;54412;51.206;6.888;2023-08-01T04:34:26;99200.94;;;17.55;100.00
10460;BME280;54412;51.206;6.888;2023-08-01T04:36:52;99203.97;;;17.43;100.00
10460;BME280;54412;51.206;6.888;2023-08-01T04:39:17;99198.94;;;17.40;100.00
10460;BME280;54412;51.206;6.888;2023-08-01T04:41:43;99208.91;;;17.38;100.00
10460;BME280;54412;51.206;6.888;2023-08-01T04:44:09;99204.66;;;17.45;100.00
10460;BME280;54412;51.206;6.888;2023-08-01T04:46:34;99210.81;;;17.28;100.00
10460;BME280;54412;51.206;6.888;2023-08-01T04:49:00;99199.41;;;17.35;100.00
10460;BME280;54412;51.206;6.888;2023-08-01T04:51:26;99200.63;;;17.23;100.00
10460;BME280;54412;51.206;6.888;2023-08-01T04:53:51;99211.97;;;17.43;100.00
10460;BME280;54412;51.206;6.888;2023-08-01T04:56:17;99211.88;;;17.52;100.00
10460;BME280;54412;51.206;6.888;2023-08-01T04:58:43;99203.97;;;17.43;100.00
10460;BME280;54412;51.206;6.888;2023-08-01T05:01:09;99203.44;;;17.39;100.00
10460;BME280;54412;51.206;6.888;2023-08-01T05:03:34;99208.78;;;17.39;100.00
10460;BME280;54412;51.206;6.888;2023-08-01T05:06:00;99209.22;;;17.35;100.00
10460;BME280;54412;51.206;6.888;2023-08-01T05:08:26;99216.69;;;17.49;100.00
10460;BME280;54412;51.206;6.888;2023-08-01T05:10:51;99221.78;;;17.42;100.00
10460;BME280;54412;51.206;6.888;2023-08-01T05:13:18;99220.94;;;17.42;100.00
10460;BME280;54412;51.206;6.888;2023-08-01T05:15:45;99223.16;;;17.46;100.00
10460;BME280;54412;51.206;6.888;2023-08-01T05:18:16;99225.28;;;17.43;100.00
10460;BME280;54412;51.206;6.888;2023-08-01T05:20:43;99229.88;;;17.50;100.00
10460;BME280;54412;51.206;6.888;2023-08-01T05:23:09;99237.47;;;17.63;100.00
10460;BME280;54412;51.206;6.888;2023-08-01T05:25:35;99237.63;;;17.44;100.00
10460;BME280;54412;51.206;6.888;2023-08-01T05:28:01;99233.28;;;17.60;100.00
10460;BME280;54412;51.206;6.888;2023-08-01T05:30:26;99235.81;;;17.62;100.00
10460;BME280;54412;51.206;6.888;2023-08-01T05:32:52;99243.75;;;17.80;100.00
10460;BME280;54412;51.206;6.888;2023-08-01T05:35:19;99242.88;;;17.71;100.00
10460;BME280;54412;51.206;6.888;2023-08-01T05:37:45;99245.41;;;17.55;100.00
10460;BME280;54412;51.206;6.888;2023-08-01T05:40:11;99243.47;;;17.65;100.00
10460;BME280;54412;51.206;6.888;2023-08-01T05:42:37;99247.72;;;17.75;100.00
10460;BME280;54412;51.206;6.888;2023-08-01T05:45:03;99251.13;;;17.60;100.00
10460;BME280;54412;51.206;6.888;2023-08-01T05:47:30;99247.16;;;17.64;100.00
10460;BME280;54412;51.206;6.888;2023-08-01T05:49:56;99255.81;;;17.84;100.00
10460;BME280;54412;51.206;6.888;2023-08-01T05:52:22;99256.22;;;17.71;99.77
10460;BME280;54412;51.206;6.888;2023-08-01T05:54:47;99253.19;;;17.66;100.00
10460;BME280;54412;51.206;6.888;2023-08-01T05:57:13;99256.22;;;17.71;100.00
10460;BME280;54412;51.206;6.888;2023-08-01T05:59:39;99264.88;;;17.38;100.00
10460;BME280;54412;51.206;6.888;2023-08-01T06:02:06;99257.13;;;17.27;100.00
10460;BME280;54412;51.206;6.888;2023-08-01T06:04:32;99265.41;;;17.24;100.00
10460;BME280;54412;51.206;6.888;2023-08-01T06:06:57;99266.41;;;17.23;100.00
10460;BME280;54412;51.206;6.888;2023-08-01T06:09:25;99263.38;;;17.35;100.00
10460;BME280;54412;51.206;6.888;2023-08-01T06:11:50;99262.25;;;17.55;100.00
10460;BME280;54412;51.206;6.888;2023-08-01T06:14:17;99265.69;;;17.48;100.00
10460;BME280;54412;51.206;6.888;2023-08-01T06:16:43;99258.69;;;17.20;100.00
10460;BME280;54412;51.206;6.888;2023-08-01T06:19:09;99266.78;;;17.28;100.00
10460;BME280;54412;51.206;6.888;2023-08-01T06:21:34;99269.09;;;17.58;100.00
10460;BME280;54412;51.206;6.888;2023-08-01T06:24:00;99267.25;;;17.41;100.00
10460;BME280;54412;51.206;6.888;2023-08-01T06:26:26;99257.72;;;17.38;100.00
10460;BME280;54412;51.206;6.888;2023-08-01T06:28:52;99269.63;;;17.61;100.00
10460;BME280;54412;51.206;6.888;2023-08-01T06:31:21;99268.88;;;17.51;100.00
10460;BME280;54412;51.206;6.888;2023-08-01T06:33:47;99265.81;;;17.64;100.00
10460;BME280;54412;51.206;6.888;2023-08-01T06:36:13;99270.16;;;17.47;99.64
10460;BME280;54412;51.206;6.888;2023-08-01T06:38:39;99280.22;;;17.71;100.00
10460;BME280;54412;51.206;6.888;2023-08-01T06:41:04;99273.88;;;17.72;99.11
10460;BME280;54412;51.206;6.888;2023-08-01T06:43:30;99282.56;;;17.74;99.45
10460;BME280;54412;51.206;6.888;2023-08-01T06:45:56;99272.91;;;17.73;98.20
10460;BME280;54412;51.206;6.888;2023-08-01T06:48:21;99282.66;;;17.64;98.53
10460;BME280;54412;51.206;6.888;2023-08-01T06:50:47;99276.50;;;17.64;99.69
10460;BME280;54412;51.206;6.888;2023-08-01T06:53:13;99273.38;;;17.51;99.51
10460;BME280;54412;51.206;6.888;2023-08-01T06:55:38;99284.53;;;17.72;98.85
10460;BME280;54412;51.206;6.888;2023-08-01T06:58:05;99274.00;;;17.88;98.09
10460;BME280;54412;51.206;6.888;2023-08-01T07:00:31;99276.13;;;17.85;97.52
10460;BME280;54412;51.206;6.888;2023-08-01T07:02:57;99272.97;;;17.63;97.83
10460;BME280;54412;51.206;6.888;2023-08-01T07:05:23;99274.03;;;17.35;97.92
10460;BME280;54412;51.206;6.888;2023-08-01T07:07:49;99285.72;;;17.52;98.26
10460;BME280;54412;51.206;6.888;2023-08-01T07:10:14;99285.78;;;17.60;98.04
10460;BME280;54412;51.206;6.888;2023-08-01T07:12:40;99284.69;;;17.70;98.93
10460;BME280;54412;51.206;6.888;2023-08-01T07:15:07;99285.22;;;17.74;97.00
10460;BME280;54412;51.206;6.888;2023-08-01T07:17:33;99291.78;;;17.80;96.65
10460;BME280;54412;51.206;6.888;2023-08-01T07:19:58;99287.59;;;17.77;96.36
10460;BME280;54412;51.206;6.888;2023-08-01T07:22:24;99284.63;;;17.80;97.51
10460;BME280;54412;51.206;6.888;2023-08-01T07:24:54;99286.81;;;17.85;95.85
10460;BME280;54412;51.206;6.888;2023-08-01T07:27:21;99282.84;;;17.89;96.49
10460;BME280;54412;51.206;6.888;2023-08-01T07:29:47;99289.66;;;18.09;95.62
10460;BME280;54412;51.206;6.888;2023-08-01T07:32:14;99297.06;;;17.97;94.81
10460;BME280;54412;51.206;6.888;2023-08-01T07:34:39;99283.31;;;18.10;93.93
10460;BME280;54412;51.206;6.888;2023-08-01T07:37:05;99297.84;;;18.07;93.23
10460;BME280;54412;51.206;6.888;2023-08-01T07:39:31;99291.09;;;17.95;92.58
10460;BME280;54412;51.206;6.888;2023-08-01T07:41:56;99299.38;;;17.92;92.95
10460;BME280;54412;51.206;6.888;2023-08-01T07:44:23;99300.34;;;18.09;92.77
10460;BME280;54412;51.206;6.888;2023-08-01T07:46:48;99294.69;;;18.12;93.57
10460;BME280;54412;51.206;6.888;2023-08-01T07:49:14;99305.47;;;17.85;93.24
10460;BME280;54412;51.206;6.888;2023-08-01T07:51:39;99298.06;;;17.96;92.28
10460;BME280;54412;51.206;6.888;2023-08-01T07:54:06;99303.63;;;18.03;92.92
10460;BME280;54412;51.206;6.888;2023-08-01T07:56:31;99306.41;;;17.93;92.96
10460;BME280;54412;51.206;6.888;2023-08-01T07:58:57;99313.69;;;18.09;93.01
10460;BME280;54412;51.206;6.888;2023-08-01T08:01:23;99314.78;;;17.98;90.54
10460;BME280;54412;51.206;6.888;2023-08-01T08:03:48;99315.09;;;17.95;91.64
10460;BME280;54412;51.206;6.888;2023-08-01T08:06:14;99316.22;;;17.93;90.96
10460;BME280;54412;51.206;6.888;2023-08-01T08:08:40;99315.50;;;18.08;90.99
10460;BME280;54412;51.206;6.888;2023-08-01T08:11:05;99311.38;;;18.14;90.82
10460;BME280;54412;51.206;6.888;2023-08-01T08:13:31;99316.00;;;18.29;90.67
10460;BME280;54412;51.206;6.888;2023-08-01T08:15:57;99314.38;;;18.36;89.79
10460;BME280;54412;51.206;6.888;2023-08-01T08:18:23;99312.78;;;18.43;89.55
10460;BME280;54412;51.206;6.888;2023-08-01T08:20:49;99315.72;;;18.40;87.77
10460;BME280;54412;51.206;6.888;2023-08-01T08:23:15;99319.09;;;18.17;87.89
10460;BME280;54412;51.206;6.888;2023-08-01T08:25:42;99322.56;;;18.17;89.45
10460;BME280;54412;51.206;6.888;2023-08-01T08:28:11;99326.56;;;18.13;87.46
10460;BME280;54412;51.206;6.888;2023-08-01T08:30:38;99319.31;;;18.31;87.31
10460;BME280;54412;51.206;6.888;2023-08-01T08:33:04;99327.03;;;18.09;86.42
10460;BME280;54412;51.206;6.888;2023-08-01T08:35:33;99325.50;;;18.06;85.74
10460;BME280;54412;51.206;6.888;2023-08-01T08:38:02;99331.22;;;18.11;86.93
10460;BME280;54412;51.206;6.888;2023-08-01T08:40:32;99324.66;;;18.31;85.76
10460;BME280;54412;51.206;6.888;2023-08-01T08:43:02;99322.53;;;18.60;85.95
10460;BME280;54412;51.206;6.888;2023-08-01T08:45:34;99322.72;;;18.59;85.10
10460;BME280;54412;51.206;6.888;2023-08-01T08:48:03;99324.94;;;18.71;84.87
10460;BME280;54412;51.206;6.888;2023-08-01T08:50:35;99326.38;;;18.58;85.08
10460;BME280;54412;51.206;6.888;2023-08-01T08:53:02;99325.53;;;18.57;86.59
10460;BME280;54412;51.206;6.888;2023-08-01T08:55:29;99321.06;;;18.66;86.39
10460;BME280;54412;51.206;6.888;2023-08-01T08:57:58;99324.78;;;18.73;84.59
10460;BME280;54412;51.206;6.888;2023-08-01T09:00:25;99328.38;;;18.90;84.71
10460;BME280;54412;51.206;6.888;2023-08-01T09:02:53;99329.16;;;18.82;84.71
10460;BME280;54412;51.206;6.888;2023-08-01T09:05:21;99343.53;;;18.81;82.84
10460;BME280;54412;51.206;6.888;2023-08-01T09:07:51;99338.72;;;18.59;83.58
10460;BME280;54412;51.206;6.888;2023-08-01T09:10:20;99334.59;;;18.64;83.73
10460;BME280;54412;51.206;6.888;2023-08-01T09:12:46;99334.84;;;18.87;83.00
10460;BME280;54412;51.206;6.888;2023-08-01T09:15:13;99335.13;;;19.10;82.98
10460;BME280;54412;51.206;6.888;2023-08-01T09:17:54;99338.72;;;19.26;81.48
10460;BME280;54412;51.206;6.888;2023-08-01T09:20:30;99331.47;;;19.68;79.58
10460;BME280;54412;51.206;6.888;2023-08-01T09:22:55;99335.34;;;19.82;77.92
10460;BME280;54412;51.206;6.888;2023-08-01T09:25:31;99333.34;;;20.16;76.30
10460;BME280;54412;51.206;6.888;2023-08-01T09:28:00;99349.06;;;20.03;77.37
10460;BME280;54412;51.206;6.888;2023-08-01T09:30:26;99344.84;;;19.68;76.41
10460;BME280;54412;51.206;6.888;2023-08-01T09:32:55;99348.13;;;19.38;78.26
10460;BME280;54412;51.206;6.888;2023-08-01T09:35:21;99354.31;;;19.47;77.51
10460;BME280;54412;51.206;6.888;2023-08-01T09:37:48;99346.63;;;19.44;77.51
10460;BME280;54412;51.206;6.888;2023-08-01T09:40:14;99345.03;;;19.75;75.00
10460;BME280;54412;51.206;6.888;2023-08-01T09:42:42;99333.16;;;19.94;74.41
10460;BME280;54412;51.206;6.888;2023-08-01T09:45:15;99333.00;;;19.87;76.60
10460;BME280;54412;51.206;6.888;2023-08-01T09:47:45;99323.31;;;20.02;75.64
10460;BME280;54412;51.206;6.888;2023-08-01T09:50:19;99337.84;;;20.32;73.64
10460;BME280;54412;51.206;6.888;2023-08-01T09:52:46;99343.72;;;20.19;72.57
10460;BME280;54412;51.206;6.888;2023-08-01T09:55:39;99347.66;;;20.63;71.58
10460;BME280;54412;51.206;6.888;2023-08-01T09:58:07;99335.66;;;20.35;71.33
10460;BME280;54412;51.206;6.888;2023-08-01T10:00:34;99338.50;;;19.94;71.75
10460;BME280;54412;51.206;6.888;2023-08-01T10:03:01;99330.31;;;20.03;71.61
10460;BME280;54412;51.206;6.888;2023-08-01T10:05:31;99337.50;;;19.95;72.48
10460;BME280;54412;51.206;6.888;2023-08-01T10:08:02;99342.19;;;20.09;71.90
10460;BME280;54412;51.206;6.888;2023-08-01T10:10:29;99335.50;;;20.21;72.06
10460;BME280;54412;51.206;6.888;2023-08-01T10:12:56;99341.34;;;20.16;71.40
10460;BME280;54412;51.206;6.888;2023-08-01T10:15:24;99342.38;;;20.07;73.27
10460;BME280;54412;51.206;6.888;2023-08-01T10:17:51;99346.41;;;20.19;72.04
10460;BME280;54412;51.206;6.888;2023-08-01T10:20:20;99335.03;;;20.25;68.71
10460;BME280;54412;51.206;6.888;2023-08-01T10:22:49;99337.81;;;20.56;68.50
10460;BME280;54412;51.206;6.888;2023-08-01T10:25:17;99344.88;;;20.49;68.54
10460;BME280;54412;51.206;6.888;2023-08-01T10:27:43;99335.50;;;20.45;67.37
10460;BME280;54412;51.206;6.888;2023-08-01T10:30:09;99335.34;;;20.30;66.41
10460;BME280;54412;51.206;6.888;2023-08-01T10:32:39;99341.34;;;20.08;67.59
10460;BME280;54412;51.206;6.888;2023-08-01T10:35:06;99346.03;;;20.14;68.11
10460;BME280;54412;51.206;6.888;2023-08-01T10:37:46;99351.56;;;20.05;69.29
10460;BME280;54412;51.206;6.888;2023-08-01T10:40:14;99341.00;;;19.95;68.66
10460;BME280;54412;51.206;6.888;2023-08-01T10:42:44;99339.00;;;19.97;70.42
10460;BME280;54412;51.206;6.888;2023-08-01T10:45:23;99335.84;;;20.02;69.51
10460;BME280;54412;51.206;6.888;2023-08-01T10:47:52;99349.56;;;20.07;69.16
10460;BME280;54412;51.206;6.888;2023-08-01T10:50:18;99345.38;;;20.28;69.26
10460;BME280;54412;51.206;6.888;2023-08-01T10:52:45;99344.03;;;20.40;68.20
10460;BME280;54412;51.206;6.888;2023-08-01T10:55:12;99343.06;;;20.25;68.34
10460;BME280;54412;51.206;6.888;2023-08-01T10:57:49;99352.06;;;20.08;68.33
10460;BME280;54412;51.206;6.888;2023-08-01T11:00:18;99350.06;;;20.02;66.99
10460;BME280;54412;51.206;6.888;2023-08-01T11:02:50;99354.75;;;20.32;68.31
10460;BME280;54412;51.206;6.888;2023-08-01T11:05:19;99353.06;;;20.55;66.65
10460;BME280;54412;51.206;6.888;2023-08-01T11:07:58;99353.50;;;20.67;66.20
10460;BME280;54412;51.206;6.888;2023-08-01T11:10:27;99362.28;;;20.37;65.45
10460;BME280;54412;51.206;6.888;2023-08-01T11:12:53;99366.97;;;20.98;64.57
10460;BME280;54412;51.206;6.888;2023-08-01T11:15:20;99359.91;;;21.21;64.44
10460;BME280;54412;51.206;6.888;2023-08-01T11:17:52;99351.94;;;21.35;64.10
10460;BME280;54412;51.206;6.888;2023-08-01T11:20:20;99372.22;;;21.68;62.80
10460;BME280;54412;51.206;6.888;2023-08-01T11:22:59;99365.94;;;22.07;61.81
10460;BME280;54412;51.206;6.888;2023-08-01T11:25:43;99369.75;;;22.12;60.26
10460;BME280;54412;51.206;6.888;2023-08-01T11:28:14;99373.56;;;21.95;61.57
10460;BME280;54412;51.206;6.888;2023-08-01T11:30:40;99363.19;;;21.31;62.84
10460;BME280;54412;51.206;6.888;2023-08-01T11:33:23;99354.38;;;21.22;62.10
10460;BME280;54412;51.206;6.888;2023-08-01T11:35:56;99376.72;;;20.99;62.58
10460;BME280;54412;51.206;6.888;2023-08-01T11:38:30;99385.34;;;20.62;64.19
10460;BME280;54412;51.206;6.888;2023-08-01T11:40:58;99400.78;;;20.52;65.67
10460;BME280;54412;51.206;6.888;2023-08-01T11:43:24;99406.47;;;20.49;67.96
10460;BME280;54412;51.206;6.888;2023-08-01T11:45:55;99423.69;;;20.22;70.96
10460;BME280;54412;51.206;6.888;2023-08-01T11:48:22;99441.00;;;19.86;72.79
10460;BME280;54412;51.206;6.888;2023-08-01T11:50:55;99451.50;;;19.30;75.21
10460;BME280;54412;51.206;6.888;2023-08-01T11:53:22;99442.31;;;18.99;77.59
10460;BME280;54412;51.206;6.888;2023-08-01T11:55:50;99440.00;;;19.04;78.58
10460;BME280;54412;51.206;6.888;2023-08-01T11:58:31;99441.28;;;19.00;78.92
10460;BME280;54412;51.206;6.888;2023-08-01T12:01:10;99446.34;;;18.77;79.16
10460;BME280;54412;51.206;6.888;2023-08-01T12:03:48;99439.28;;;18.94;79.49
10460;BME280;54412;51.206;6.888;2023-08-01T12:06:15;99429.31;;;19.04;80.67
10460;BME280;54412;51.206;6.888;2023-08-01T12:08:43;99437.22;;;19.21;80.26
10460;BME280;54412;51.206;6.888;2023-08-01T12:11:26;99427.16;;;19.07;82.64
10460;BME280;54412;51.206;6.888;2023-08-01T12:14:07;99425.47;;;19.06;81.85
10460;BME280;54412;51.206;6.888;2023-08-01T12:16:38;99430.50;;;19.35;81.76
10460;BME280;54412;51.206;6.888;2023-08-01T12:19:05;99427.63;;;19.86;79.67
10460;BME280;54412;51.206;6.888;2023-08-01T12:21:33;99437.91;;;19.49;81.39
10460;BME280;54412;51.206;6.888;2023-08-01T12:23:59;99442.44;;;19.56;80.13
10460;BME280;54412;51.206;6.888;2023-08-01T12:26:25;99451.28;;;19.23;81.53
10460;BME280;54412;51.206;6.888;2023-08-01T12:28:51;99451.72;;;19.11;79.27
10460;BME280;54412;51.206;6.888;2023-08-01T12:31:19;99456.59;;;19.15;80.41
10460;BME280;54412;51.206;6.888;2023-08-01T12:33:46;99448.84;;;19.04;83.09
10460;BME280;54412;51.206;6.888;2023-08-01T12:36:13;99445.16;;;19.05;82.81
10460;BME280;54412;51.206;6.888;2023-08-01T12:38:39;99441.44;;;19.24;81.01
10460;BME280;54412;51.206;6.888;2023-08-01T12:41:05;99422.91;;;19.64;81.34
10460;BME280;54412;51.206;6.888;2023-08-01T12:43:31;99425.31;;;19.99;81.78
10460;BME280;54412;51.206;6.888;2023-08-01T12:45:57;99416.00;;;20.35;81.27
10460;BME280;54412;51.206;6.888;2023-08-01T12:48:27;99416.44;;;20.95;79.26
10460;BME280;54412;51.206;6.888;2023-08-01T12:50:54;99428.50;;;20.91;73.96
10460;BME280;54412;51.206;6.888;2023-08-01T12:53:23;99427.41;;;21.32;75.56
10460;BME280;54412;51.206;6.888;2023-08-01T12:55:50;99430.97;;;21.55;73.58